createdAt,value
2022-10-17T00:01:02.748Z,7.15
2022-10-17T00:03:29.421Z,7.15
2022-10-17T00:05:58.426Z,7.53
2022-10-17T00:08:25.475Z,7.20
2022-10-17T00:11:01.694Z,7.07
2022-10-17T00:13:28.706Z,7.32
2022-10-17T00:15:58.180Z,7.72
2022-10-17T00:18:26.631Z,7.68
2022-10-17T00:20:54.632Z,7.30
2022-10-17T00:23:22.664Z,7.35
2022-10-17T00:26:01.487Z,7.13
2022-10-17T00:28:29.309Z,7.63
2022-10-17T00:31:03.040Z,7.80
2022-10-17T00:33:31.221Z,7.50
2022-10-17T00:36:08.548Z,7.75
2022-10-17T00:38:38.378Z,7.20
2022-10-17T00:41:07.178Z,8.00
2022-10-17T00:44:29.354Z,7.22
2022-10-17T00:46:58.670Z,7.18
2022-10-17T00:49:29.911Z,6.97
2022-10-17T00:52:01.743Z,5.20
2022-10-17T00:57:01.687Z,6.32
2022-10-17T00:59:29.888Z,7.13
2022-10-17T01:02:13.601Z,6.72
2022-10-17T01:04:44.300Z,6.55
2022-10-17T01:07:12.674Z,7.07
2022-10-17T01:09:41.565Z,6.65
2022-10-17T01:12:30.803Z,6.55
2022-10-17T01:15:27.535Z,6.60
2022-10-17T01:18:15.245Z,6.57
2022-10-17T01:21:17.951Z,6.05
2022-10-17T01:24:18.070Z,6.38
2022-10-17T01:27:09.253Z,6.20
2022-10-17T01:29:53.948Z,7.03
2022-10-17T01:32:56.418Z,6.30
2022-10-17T01:35:47.184Z,6.30
2022-10-17T01:38:21.098Z,7.43
2022-10-17T01:41:17.896Z,7.05
2022-10-17T01:43:53.852Z,6.88
2022-10-17T01:46:27.041Z,6.45
2022-10-17T01:48:58.276Z,6.07
2022-10-17T01:51:36.895Z,7.00
2022-10-17T01:54:24.404Z,6.43
2022-10-17T01:56:58.499Z,6.72
2022-10-17T01:59:32.005Z,7.22
2022-10-17T02:02:01.807Z,6.75
2022-10-17T02:04:29.209Z,6.25
2022-10-17T02:06:56.997Z,6.60
2022-10-17T02:09:29.459Z,6.78
2022-10-17T02:12:01.764Z,5.93
2022-10-17T02:14:37.373Z,6.70
2022-10-17T02:17:25.204Z,6.30
2022-10-17T02:20:24.718Z,6.57
2022-10-17T02:23:21.501Z,6.72
2022-10-17T02:25:47.998Z,6.65
2022-10-17T02:28:14.504Z,6.32
2022-10-17T02:31:06.919Z,6.75
2022-10-17T02:33:39.351Z,6.28
2022-10-17T02:36:11.881Z,6.22
2022-10-17T02:38:40.458Z,6.93
2022-10-17T02:41:11.605Z,6.20
2022-10-17T02:43:39.352Z,7.00
2022-10-17T02:46:08.054Z,6.65
2022-10-17T02:48:37.365Z,6.43
2022-10-17T02:51:20.973Z,6.75
2022-10-17T02:53:59.493Z,6.57
2022-10-17T02:56:29.136Z,6.10
2022-10-17T02:58:59.040Z,6.95
2022-10-17T03:01:26.291Z,6.63
2022-10-17T03:04:07.342Z,6.65
2022-10-17T03:06:33.995Z,7.35
2022-10-17T03:09:00.577Z,6.88
2022-10-17T03:11:27.203Z,6.35
2022-10-17T03:13:53.805Z,7.63
2022-10-17T03:16:20.414Z,7.20
2022-10-17T03:18:49.377Z,6.28
2022-10-17T03:21:16.953Z,7.18
2022-10-17T03:23:43.520Z,7.20
2022-10-17T03:26:10.380Z,7.95
2022-10-17T03:28:37.053Z,7.40
2022-10-17T03:31:12.958Z,6.40
2022-10-17T03:33:39.725Z,6.80
2022-10-17T03:36:08.398Z,6.05
2022-10-17T03:38:35.655Z,6.22
2022-10-17T03:41:03.024Z,6.72
2022-10-17T03:43:30.443Z,7.65
2022-10-17T03:46:01.510Z,6.78
2022-10-17T03:48:29.867Z,6.38
2022-10-17T03:51:09.802Z,6.80
2022-10-17T03:53:36.450Z,7.53
2022-10-17T03:56:20.881Z,7.20
2022-10-17T03:58:47.756Z,6.95
2022-10-17T04:01:16.565Z,7.10
2022-10-17T04:03:43.938Z,8.15
2022-10-17T04:06:13.295Z,6.72
2022-10-17T04:08:40.220Z,7.47
2022-10-17T04:11:08.440Z,6.88
2022-10-17T04:13:36.090Z,7.47
2022-10-17T04:16:06.003Z,6.60
2022-10-17T04:18:33.540Z,7.38
2022-10-17T04:21:07.416Z,6.53
2022-10-17T04:23:34.378Z,6.97
2022-10-17T04:26:03.438Z,6.82
2022-10-17T04:28:30.716Z,6.75
2022-10-17T04:31:06.340Z,6.95
2022-10-17T04:33:34.254Z,6.70
2022-10-17T04:36:02.886Z,7.45
2022-10-17T04:38:30.747Z,6.78
2022-10-17T04:40:58.744Z,6.65
2022-10-17T04:43:25.321Z,7.63
2022-10-17T04:45:51.960Z,7.82
2022-10-17T04:48:18.551Z,7.93
2022-10-17T04:51:01.346Z,7.90
2022-10-17T04:53:28.245Z,7.82
2022-10-17T04:55:54.898Z,8.00
2022-10-17T04:58:21.514Z,7.88
2022-10-17T05:00:48.211Z,8.40
2022-10-17T05:03:15.177Z,8.55
2022-10-17T05:05:42.514Z,9.02
2022-10-17T05:08:10.793Z,7.63
2022-10-17T05:10:43.143Z,7.85
2022-10-17T05:13:10.762Z,6.80
2022-10-17T05:15:38.180Z,7.28
2022-10-17T05:18:06.198Z,7.80
2022-10-17T05:20:33.512Z,7.35
2022-10-17T05:23:00.663Z,8.10
2022-10-17T05:25:27.247Z,8.57
2022-10-17T05:27:54.495Z,8.43
2022-10-17T05:30:21.106Z,8.55
2022-10-17T05:32:47.720Z,8.00
2022-10-17T05:35:14.363Z,7.78
2022-10-17T05:37:41.087Z,7.45
2022-10-17T05:40:08.608Z,7.07
2022-10-17T05:42:35.234Z,8.70
2022-10-17T05:45:01.829Z,8.60
2022-10-17T05:47:28.783Z,8.60
2022-10-17T05:49:55.661Z,7.90
2022-10-17T05:52:22.274Z,7.75
2022-10-17T05:54:48.898Z,7.68
2022-10-17T05:57:15.513Z,8.02
2022-10-17T05:59:42.268Z,7.75
2022-10-17T06:02:12.532Z,8.20
2022-10-17T06:04:41.074Z,8.52
2022-10-17T06:07:07.692Z,7.70
2022-10-17T06:09:34.398Z,7.88
2022-10-17T06:12:00.975Z,8.77
2022-10-17T06:14:27.664Z,7.93
2022-10-17T06:16:54.209Z,8.07
2022-10-17T06:19:20.765Z,8.05
2022-10-17T06:21:47.323Z,7.00
2022-10-17T06:24:13.983Z,8.18
2022-10-17T06:26:40.535Z,7.47
2022-10-17T06:29:07.298Z,7.05
2022-10-17T06:31:34.007Z,8.02
2022-10-17T06:34:00.575Z,7.65
2022-10-17T06:36:27.241Z,7.40
2022-10-17T06:38:53.805Z,8.07
2022-10-17T06:41:20.473Z,8.30
2022-10-17T06:43:47.643Z,7.65
2022-10-17T06:46:16.344Z,7.82
2022-10-17T06:48:43.410Z,7.32
2022-10-17T06:51:11.474Z,7.15
2022-10-17T06:53:40.053Z,7.03
2022-10-17T06:56:08.378Z,6.38
2022-10-17T06:58:39.139Z,7.30
2022-10-17T07:01:11.901Z,6.93
2022-10-17T07:03:39.221Z,6.95
2022-10-17T07:06:06.050Z,7.63
2022-10-17T07:08:32.709Z,6.53
2022-10-17T07:10:59.441Z,6.82
2022-10-17T07:13:26.049Z,6.72
2022-10-17T07:15:52.719Z,6.18
2022-10-17T07:18:19.345Z,6.68
2022-10-17T07:20:54.111Z,6.72
2022-10-17T07:23:21.178Z,7.15
2022-10-17T07:25:47.782Z,6.40
2022-10-17T07:28:16.056Z,6.90
2022-10-17T07:30:43.185Z,7.03
2022-10-17T07:33:09.734Z,6.63
2022-10-17T07:35:38.238Z,6.40
2022-10-17T07:38:04.853Z,6.97
2022-10-17T07:40:35.243Z,5.93
2022-10-17T07:43:06.122Z,6.65
2022-10-17T07:45:35.288Z,6.23
2022-10-17T07:48:05.375Z,7.32
2022-10-17T07:50:34.280Z,6.90
2022-10-17T07:53:09.833Z,6.63
2022-10-17T07:55:49.531Z,6.47
2022-10-17T07:58:21.603Z,5.63
2022-10-17T08:00:53.478Z,6.45
2022-10-17T08:03:21.557Z,6.35
2022-10-17T08:05:48.213Z,5.88
2022-10-17T08:08:16.458Z,6.13
2022-10-17T08:10:45.923Z,5.22
2022-10-17T08:13:12.490Z,6.13
2022-10-17T08:15:40.827Z,5.15
2022-10-17T08:18:10.354Z,5.35
2022-10-17T08:20:55.597Z,5.20
2022-10-17T08:23:26.341Z,5.00
2022-10-17T08:25:55.029Z,5.00
2022-10-17T08:28:23.774Z,5.28
2022-10-17T08:30:55.597Z,5.63
2022-10-17T08:35:54.148Z,5.65
2022-10-17T08:38:27.548Z,4.63
2022-10-17T08:41:02.892Z,5.07
2022-10-17T08:44:00.820Z,5.07
2022-10-17T08:46:46.266Z,4.45
2022-10-17T08:49:42.204Z,4.30
2022-10-17T08:52:40.543Z,4.88
2022-10-17T08:55:32.367Z,4.72
2022-10-17T08:58:00.430Z,4.97
2022-10-17T09:00:31.674Z,5.03
2022-10-17T09:03:41.501Z,5.40
2022-10-17T09:06:33.000Z,5.25
2022-10-17T09:09:37.337Z,5.55
2022-10-17T09:12:36.081Z,5.40
2022-10-17T09:15:32.277Z,4.88
2022-10-17T09:18:17.606Z,4.85
2022-10-17T09:21:13.791Z,5.60
2022-10-17T09:24:09.656Z,5.97
2022-10-17T09:26:45.865Z,5.70
2022-10-17T09:29:43.619Z,5.03
2022-10-17T09:32:25.259Z,5.20
2022-10-17T09:34:55.292Z,5.60
2022-10-17T09:37:31.618Z,6.22
2022-10-17T09:39:59.964Z,5.35
2022-10-17T09:42:29.875Z,5.28
2022-10-17T09:45:31.856Z,5.30
2022-10-17T09:48:22.772Z,5.10
2022-10-17T09:51:02.532Z,5.53
2022-10-17T09:54:01.206Z,5.78
2022-10-17T09:56:31.298Z,5.35
2022-10-17T09:59:05.076Z,5.65
2022-10-17T10:01:35.415Z,5.53
2022-10-17T10:04:18.453Z,5.15
2022-10-17T10:07:10.312Z,5.65
2022-10-17T10:12:18.483Z,5.63
2022-10-17T10:14:47.345Z,5.32
2022-10-17T10:17:47.539Z,5.10
2022-10-17T10:20:36.070Z,5.40
2022-10-17T10:23:15.233Z,5.40
2022-10-17T10:26:06.290Z,5.20
2022-10-17T10:28:40.041Z,5.80
2022-10-17T10:31:12.157Z,5.30
2022-10-17T10:33:56.854Z,5.55
2022-10-17T10:36:25.422Z,5.47
2022-10-17T10:39:01.241Z,5.65
2022-10-17T10:41:48.079Z,5.88
2022-10-17T10:44:20.704Z,4.85
2022-10-17T10:46:50.395Z,5.38
2022-10-17T10:49:32.730Z,5.70
2022-10-17T10:52:10.986Z,5.75
2022-10-17T10:54:50.486Z,5.93
2022-10-17T10:57:27.114Z,5.65
2022-10-17T11:00:21.643Z,5.10
2022-10-17T11:03:35.651Z,5.57
2022-10-17T11:06:20.894Z,4.90
2022-10-17T11:09:28.832Z,5.30
2022-10-17T11:12:20.840Z,4.95
2022-10-17T11:15:19.023Z,5.85
2022-10-17T11:18:05.585Z,5.07
2022-10-17T11:21:00.916Z,5.85
2022-10-17T11:23:51.133Z,5.03
2022-10-17T11:27:10.509Z,5.10
2022-10-17T11:29:42.812Z,4.80
2022-10-17T11:32:19.627Z,5.50
2022-10-17T11:34:49.935Z,4.60
2022-10-17T11:37:23.079Z,5.65
2022-10-17T11:40:31.323Z,4.93
2022-10-17T11:43:02.311Z,4.50
2022-10-17T11:45:35.173Z,4.30
2022-10-17T11:48:17.895Z,4.82
2022-10-17T11:53:47.814Z,4.43
2022-10-17T11:56:20.175Z,5.40
2022-10-17T11:58:58.649Z,4.75
2022-10-17T12:01:42.161Z,4.95
2022-10-17T12:04:30.792Z,4.82
2022-10-17T12:07:25.690Z,5.38
2022-10-17T12:10:21.654Z,4.65
2022-10-17T12:12:49.536Z,4.60
2022-10-17T12:15:23.501Z,4.60
2022-10-17T12:18:03.161Z,4.50
2022-10-17T12:20:35.564Z,4.30
2022-10-17T12:23:13.308Z,5.03
2022-10-17T12:25:57.130Z,3.92
2022-10-17T12:28:38.365Z,4.47
2022-10-17T12:31:13.110Z,5.15
2022-10-17T12:33:39.698Z,4.80
2022-10-17T12:36:31.116Z,4.85
2022-10-17T12:39:03.586Z,4.40
2022-10-17T12:41:38.811Z,5.25
2022-10-17T12:44:14.739Z,4.72
2022-10-17T12:46:45.869Z,4.72
2022-10-17T12:49:24.584Z,4.70
2022-10-17T12:52:20.772Z,4.50
2022-10-17T12:55:13.178Z,4.30
2022-10-17T12:57:48.584Z,4.20
2022-10-17T13:00:28.105Z,4.35
2022-10-17T13:03:02.010Z,4.70
2022-10-17T13:05:32.790Z,3.67
2022-10-17T13:08:02.185Z,4.40
2022-10-17T13:10:32.345Z,4.35
2022-10-17T13:13:13.025Z,4.43
2022-10-17T13:15:39.696Z,4.30
2022-10-17T13:18:06.750Z,4.20
2022-10-17T13:20:33.584Z,3.40
2022-10-17T13:23:00.844Z,4.10
2022-10-17T13:25:28.708Z,3.85
2022-10-17T13:28:13.708Z,3.97
2022-10-17T13:30:49.278Z,4.07
2022-10-17T13:33:28.632Z,3.97
2022-10-17T13:36:00.549Z,4.10
2022-10-17T13:38:32.548Z,3.72
2022-10-17T13:41:11.057Z,3.80
2022-10-17T13:43:43.963Z,3.83
2022-10-17T13:46:36.956Z,3.72
2022-10-17T13:49:18.348Z,3.65
2022-10-17T13:51:48.037Z,3.58
2022-10-17T13:54:37.694Z,4.00
2022-10-17T13:57:25.752Z,4.13
2022-10-17T13:59:55.975Z,4.07
2022-10-17T14:02:28.620Z,4.10
2022-10-17T14:05:19.282Z,3.83
2022-10-17T14:08:11.799Z,3.58
2022-10-17T14:10:41.422Z,3.30
2022-10-17T14:13:19.166Z,3.05
2022-10-17T14:15:46.581Z,4.07
2022-10-17T14:18:22.269Z,4.03
2022-10-17T14:21:34.057Z,3.85
2022-10-17T14:23:43.610Z,3.90
2022-10-17T14:26:15.052Z,3.58
2022-10-17T14:31:25.574Z,3.45
2022-10-17T14:33:54.183Z,4.70
2022-10-17T14:36:31.107Z,5.50
2022-10-17T14:39:01.770Z,4.40
2022-10-17T14:41:47.848Z,4.70
2022-10-17T14:44:43.119Z,4.47
2022-10-17T14:47:42.169Z,3.90
2022-10-17T14:50:11.556Z,3.65
2022-10-17T14:55:24.660Z,3.67
2022-10-17T14:57:51.713Z,4.05
2022-10-17T15:00:21.120Z,3.45
2022-10-17T15:02:49.175Z,3.45
2022-10-17T15:05:16.490Z,3.75
2022-10-17T15:07:43.630Z,4.05
2022-10-17T15:10:28.404Z,3.88
2022-10-17T15:12:59.115Z,4.32
2022-10-17T15:15:30.402Z,3.30
2022-10-17T15:17:57.324Z,3.83
2022-10-17T15:20:27.174Z,3.97
2022-10-17T15:22:58.882Z,4.18
2022-10-17T15:25:26.727Z,4.10
2022-10-17T15:27:53.968Z,4.00
2022-10-17T15:30:29.907Z,4.22
2022-10-17T15:32:56.540Z,5.07
2022-10-17T15:35:23.412Z,4.75
2022-10-17T15:37:50.086Z,4.85
2022-10-17T15:40:18.112Z,5.15
2022-10-17T15:42:44.754Z,4.72
2022-10-17T15:45:12.873Z,5.60
2022-10-17T15:47:41.427Z,5.85
2022-10-17T15:50:11.720Z,6.22
2022-10-17T15:52:38.377Z,6.35
2022-10-17T15:55:05.484Z,6.03
2022-10-17T15:57:38.198Z,6.38
2022-10-17T16:00:16.662Z,5.95
2022-10-17T16:02:43.930Z,7.10
2022-10-17T16:05:16.735Z,7.28
2022-10-17T16:07:46.323Z,6.07
2022-10-17T16:10:14.234Z,6.35
2022-10-17T16:12:43.890Z,7.00
2022-10-17T16:15:16.925Z,6.53
2022-10-17T16:17:44.268Z,7.68
2022-10-17T16:20:12.555Z,7.47
2022-10-17T16:22:42.153Z,8.02
2022-10-17T16:25:21.512Z,6.95
2022-10-17T16:27:50.512Z,7.88
2022-10-17T16:30:17.646Z,7.28
2022-10-17T16:32:44.331Z,7.57
2022-10-17T16:35:17.584Z,7.00
2022-10-17T16:37:44.468Z,7.72
2022-10-17T16:40:11.858Z,6.57
2022-10-17T16:42:38.458Z,6.85
2022-10-17T16:45:05.657Z,6.43
2022-10-17T16:47:32.349Z,6.68
2022-10-17T16:49:58.947Z,8.02
2022-10-17T16:52:25.626Z,10.65
2022-10-17T16:54:52.225Z,11.02
2022-10-17T16:57:19.263Z,9.80
2022-10-17T16:59:45.844Z,8.27
2022-10-17T17:02:13.670Z,6.50
2022-10-17T17:04:41.822Z,6.35
2022-10-17T17:07:08.472Z,7.43
2022-10-17T17:09:35.130Z,7.20
2022-10-17T17:12:01.664Z,7.32
2022-10-17T17:14:28.306Z,6.25
2022-10-17T17:16:54.990Z,6.90
2022-10-17T17:19:21.720Z,6.57
2022-10-17T17:21:50.967Z,7.85
2022-10-17T17:24:21.510Z,8.25
2022-10-17T17:26:53.147Z,10.68
2022-10-17T17:29:20.584Z,10.18
2022-10-17T17:31:47.417Z,9.18
2022-10-17T17:34:17.954Z,8.63
2022-10-17T17:36:45.433Z,9.77
2022-10-17T17:39:15.001Z,8.73
2022-10-17T17:41:43.401Z,7.63
2022-10-17T17:44:15.583Z,8.68
2022-10-17T17:46:43.748Z,7.72
2022-10-17T17:49:11.588Z,8.27
2022-10-17T17:51:38.556Z,8.48
2022-10-17T17:54:05.393Z,8.32
2022-10-17T17:56:32.419Z,8.10
2022-10-17T17:59:01.743Z,8.52
2022-10-17T18:01:36.695Z,8.25
2022-10-17T18:04:05.177Z,8.65
2022-10-17T18:06:32.029Z,10.23
2022-10-17T18:08:59.520Z,10.35
2022-10-17T18:11:27.405Z,9.82
2022-10-17T18:13:59.571Z,9.45
2022-10-17T18:16:27.651Z,8.93
2022-10-17T18:18:54.358Z,8.73
2022-10-17T18:21:21.172Z,10.25
2022-10-17T18:23:48.887Z,9.70
2022-10-17T18:26:16.143Z,10.15
2022-10-17T18:28:43.975Z,10.70
2022-10-17T18:31:15.549Z,10.52
2022-10-17T18:33:44.619Z,10.13
2022-10-17T18:36:13.642Z,10.50
2022-10-17T18:38:40.301Z,11.60
2022-10-17T18:41:09.923Z,12.13
2022-10-17T18:43:38.243Z,11.45
2022-10-17T18:46:10.954Z,12.10
2022-10-17T18:48:42.113Z,12.02
2022-10-17T18:51:08.932Z,11.25
2022-10-17T18:53:39.943Z,12.07
2022-10-17T18:56:06.987Z,11.87
2022-10-17T18:58:33.662Z,10.70
2022-10-17T19:01:05.011Z,11.05
2022-10-17T19:03:32.364Z,10.65
2022-10-17T19:06:08.521Z,10.75
2022-10-17T19:08:36.782Z,11.88
2022-10-17T19:11:11.289Z,10.60
2022-10-17T19:13:38.081Z,11.10
2022-10-17T19:16:09.717Z,11.07
2022-10-17T19:18:37.491Z,10.73
2022-10-17T19:21:06.909Z,12.27
2022-10-17T19:23:35.949Z,10.70
2022-10-17T19:26:12.884Z,11.75
2022-10-17T19:28:42.170Z,11.70
2022-10-17T19:31:08.919Z,12.13
2022-10-17T19:33:35.945Z,11.48
2022-10-17T19:36:06.597Z,10.27
2022-10-17T19:38:34.083Z,10.45
2022-10-17T19:41:00.893Z,10.15
2022-10-17T19:43:27.488Z,11.13
2022-10-17T19:45:56.005Z,9.68
2022-10-17T19:48:23.091Z,10.98
2022-10-17T19:50:50.227Z,10.32
2022-10-17T19:53:17.798Z,10.23
2022-10-17T19:55:44.740Z,8.95
2022-10-17T19:58:12.129Z,9.52
2022-10-17T20:00:38.734Z,10.30
2022-10-17T20:03:05.301Z,10.07
2022-10-17T20:05:31.889Z,10.55
2022-10-17T20:07:58.516Z,10.80
2022-10-17T20:10:25.612Z,11.18
2022-10-17T20:12:52.195Z,10.73
2022-10-17T20:15:18.853Z,11.30
2022-10-17T20:17:45.484Z,12.02
2022-10-17T20:20:12.228Z,10.43
2022-10-17T20:22:38.896Z,11.43
2022-10-17T20:25:05.928Z,11.82
2022-10-17T20:27:32.757Z,12.55
2022-10-17T20:30:01.882Z,11.75
2022-10-17T20:32:30.996Z,10.70
2022-10-17T20:34:58.270Z,10.98
2022-10-17T20:37:25.399Z,9.70
2022-10-17T20:40:10.689Z,10.10
2022-10-17T20:42:38.793Z,10.10
2022-10-17T20:45:06.291Z,11.35
2022-10-17T20:47:45.027Z,10.52
2022-10-17T20:50:13.873Z,11.38
2022-10-17T20:52:40.461Z,11.27
2022-10-17T20:55:07.365Z,10.32
2022-10-17T20:57:33.917Z,10.52
2022-10-17T21:00:00.523Z,10.70
2022-10-17T21:02:27.119Z,11.23
2022-10-17T21:04:53.863Z,10.30
2022-10-17T21:07:22.230Z,10.93
2022-10-17T21:09:48.922Z,10.10
2022-10-17T21:12:25.765Z,10.50
2022-10-17T21:15:02.190Z,12.18
2022-10-17T21:17:28.805Z,11.23
2022-10-17T21:19:55.873Z,11.80
2022-10-17T21:22:22.509Z,13.05
2022-10-17T21:24:49.124Z,12.88
2022-10-17T21:27:18.125Z,11.80
2022-10-17T21:29:46.094Z,12.07
2022-10-17T21:32:25.171Z,11.88
2022-10-17T21:34:59.365Z,10.55
2022-10-17T21:37:26.000Z,11.70
2022-10-17T21:39:52.566Z,11.65
2022-10-17T21:42:22.721Z,11.63
2022-10-17T21:44:52.473Z,11.18
2022-10-17T21:47:23.252Z,12.10
2022-10-17T21:49:52.611Z,11.30
2022-10-17T21:52:20.607Z,11.35
2022-10-17T21:54:47.345Z,11.88
2022-10-17T21:59:48.135Z,11.55
2022-10-17T22:02:16.416Z,10.25
2022-10-17T22:04:46.750Z,10.18
2022-10-17T22:07:13.933Z,9.57
2022-10-17T22:09:41.719Z,8.57
2022-10-17T22:12:09.865Z,8.40
2022-10-17T22:14:38.824Z,8.93
2022-10-17T22:17:08.944Z,8.88
2022-10-17T22:19:36.680Z,9.05
2022-10-17T22:22:04.607Z,8.45
2022-10-17T22:24:32.421Z,8.57
2022-10-17T22:27:00.641Z,9.32
2022-10-17T22:29:28.720Z,7.78
2022-10-17T22:31:57.307Z,8.93
2022-10-17T22:34:23.836Z,9.10
2022-10-17T22:36:51.514Z,8.90
2022-10-17T22:39:19.688Z,8.70
2022-10-17T22:41:47.405Z,9.20
2022-10-17T22:44:14.008Z,9.82
2022-10-17T22:46:42.049Z,8.88
2022-10-17T22:49:10.078Z,9.32
2022-10-17T22:51:36.661Z,9.25
2022-10-17T22:54:04.373Z,8.55
2022-10-17T22:56:32.556Z,9.27
2022-10-17T22:59:00.446Z,8.93
2022-10-17T23:01:28.126Z,8.90
2022-10-17T23:03:56.130Z,9.98
2022-10-17T23:06:24.446Z,9.35
2022-10-17T23:08:52.339Z,8.55
2022-10-17T23:11:19.172Z,8.68
2022-10-17T23:13:47.291Z,9.75
2022-10-17T23:16:15.373Z,9.63
2022-10-17T23:18:44.207Z,8.95
2022-10-17T23:21:12.629Z,9.02
2022-10-17T23:23:39.324Z,9.48
2022-10-17T23:26:12.880Z,8.23
2022-10-17T23:28:41.973Z,10.30
2022-10-17T23:31:19.841Z,8.98
2022-10-17T23:33:50.039Z,9.10
2022-10-17T23:36:19.598Z,9.27
2022-10-17T23:38:48.632Z,8.90
2022-10-17T23:41:17.696Z,8.63
2022-10-17T23:43:44.713Z,9.10
2022-10-17T23:46:12.940Z,9.32
2022-10-17T23:48:41.225Z,8.40
2022-10-17T23:51:10.624Z,8.93
2022-10-17T23:53:39.057Z,9.10
2022-10-17T23:56:07.923Z,9.10
2022-10-17T23:58:36.337Z,8.52
